CDT,Max TemperatureF,Mean TemperatureF,Min TemperatureF,Max Dew PointF,MeanDew PointF,Min DewpointF,Max Humidity, Mean Humidity, Min Humidity, Max Sea Level PressureIn, Mean Sea Level PressureIn, Min Sea Level PressureIn, Max VisibilityMiles, Mean VisibilityMiles, Min VisibilityMiles, Max Wind SpeedMPH, Mean Wind SpeedMPH, Max Gust SpeedMPH,PrecipitationIn, CloudCover, Events, WindDirDegrees
2013-7-1,88,79,70,69,61,50,88,58,33,30.05,29.99,29.91,10,10,5,15,3,22,0.00,0,Rain,50
2013-7-2,93,80,68,64,54,43,79,46,19,30.11,30.05,29.98,10,10,7,13,1,18,0.00,0,,11
2013-7-3,95,80,64,54,49,40,59,37,16,30.08,30.00,29.91,10,10,5,10,1,,0.00,0,,117
2013-7-4,97,80,65,65,55,47,81,45,19,30.00,29.95,29.87,10,10,10,14,3,20,0.00,0,,111
2013-7-5,96,82,68,70,60,54,87,50,26,30.01,29.93,29.84,10,10,10,13,4,18,0.00,0,,122
2013-7-6,97,82,70,72,62,53,92,53,24,29.96,29.91,29.82,10,10,7,14,4,20,0.00,1,,117
2013-7-7,97,86,74,74,69,63,93,61,33,29.99,29.93,29.87,10,10,10,20,3,29,0.00,1,,120
2013-7-8,93,84,75,73,69,61,88,66,34,30.12,30.05,29.98,10,10,2,18,2,25,0.00,1,Rain-Thunderstorm,144
2013-7-9,97,86,75,75,70,61,94,64,30,30.16,30.09,29.99,10,10,7,18,6,24,0.00,2,,143
2013-7-10,97,84,72,73,68,60,93,56,29,30.12,30.04,29.93,10,10,7,15,4,20,0.00,0,,143
2013-7-11,97,86,75,73,66,58,86,54,28,30.03,29.97,29.88,10,10,10,15,3,21,0.00,0,,144
2013-7-12,97,86,75,72,65,50,84,57,20,29.98,29.94,29.88,10,8,1,14,4,20,0.00,0,,136
2013-7-13,99,86,72,71,62,48,80,53,19,30.01,29.95,29.87,10,10,10,12,2,21,0.00,0,,112
2013-7-14,100,86,72,71,63,54,70,48,23,29.93,29.88,29.78,10,10,10,16,3,20,0.00,0,,131
2013-7-15,88,80,75,73,70,65,83,75,51,30.01,29.91,29.85,10,10,10,15,9,20,0.00,2,Rain-Thunderstorm,116
2013-7-16,88,80,72,75,71,68,95,78,52,30.13,30.04,30.00,10,10,5,18,4,25,0.10,2,Rain,97
2013-7-17,85,78,72,75,72,71,96,88,63,30.17,30.13,30.10,10,10,5,16,4,22,0.21,3,Rain-Thunderstorm,81
2013-7-18,88,80,72,75,71,67,96,83,57,30.17,30.12,30.03,10,10,4,17,2,23,0.06,4,Rain,109
2013-7-19,94,82,70,74,68,63,98,68,36,30.10,30.02,29.91,10,10,7,13,1,18,0.00,2,,130
2013-7-20,95,83,72,75,69,60,94,69,33,30.01,29.95,29.85,10,10,3,14,2,20,0.39,3,Rain,152
2013-7-21,93,82,72,76,72,69,95,75,48,29.98,29.93,29.86,10,10,4,15,2,21,0.00,3,Thunderstorm,134
2013-7-22,97,86,77,78,73,66,92,68,37,29.99,29.94,29.87,10,10,10,18,6,28,0.00,5,,140
2013-7-23,85,80,75,77,74,73,91,84,76,30.00,29.97,29.96,10,9,7,15,8,20,0.00,0,,130
2013-7-24,,,,,,,,,,,,,,,,,,,,,,
2013-7-25,99,87,75,74,70,62,94,63,30,30.06,30.00,29.95,10,10,7,15,5,20,0.00,0,,121
2013-7-26,101,88,75,76,68,63,88,51,29,30.04,29.96,29.88,10,10,10,15,4,20,0.00,1,,151
2013-7-27,98,88,77,75,71,63,84,58,31,30.01,29.94,29.86,10,10,10,12,2,16,0.00,3,Rain-Thunderstorm,107
2013-7-28,,,,,,,,,,,,,,,,,,,,,,
2013-7-29,100,92,85,74,63,52,67,39,20,30.00,29.95,29.90,10,10,7,18,15,28,0.00,0,,133
2013-7-30,101,89,77,74,69,56,87,59,24,30.10,30.03,29.94,10,10,10,17,8,24,0.00,3,,137
2013-7-31,102,87,72,72,62,44,91,50,14,30.12,30.04,29.94,10,10,10,16,6,20,0.03,0,,133